Time;durP1;ratioP1;P1;durP2;ratioP2;P2;SDS_P1;SDS_P2;PMS_P1;PMS_P2;Temp;Humidity;BMP_temperature;BMP_pressure;BME280_temperature;BME280_humidity;BME280_pressure;Samples;Min_cycle;Max_cycle;Signal;HPM_P1;HPM_P2
2021/09/13 00:00:19;;;;;;;16.33;9.97;;;14.80;99.90;;;;;;5046818;28;20214;-69
2021/09/13 00:02:45;;;;;;;11.33;9.70;;;14.80;99.90;;;;;;5041734;28;20241;-69
2021/09/13 00:05:10;;;;;;;11.97;9.63;;;14.80;99.90;;;;;;5032457;28;20218;-69
2021/09/13 00:07:36;;;;;;;14.67;10.50;;;14.80;99.90;;;;;;5032068;28;20265;-69
2021/09/13 00:10:04;;;;;;;12.40;10.43;;;14.80;99.90;;;;;;5032228;28;20172;-69
2021/09/13 00:12:29;;;;;;;13.00;9.87;;;14.80;99.90;;;;;;5032290;28;20891;-69
2021/09/13 00:14:55;;;;;;;12.73;10.43;;;14.70;99.90;;;;;;5032949;28;20406;-69
2021/09/13 00:17:20;;;;;;;13.67;11.33;;;14.70;99.90;;;;;;5032606;28;20657;-69
2021/09/13 00:19:46;;;;;;;13.13;10.43;;;14.70;99.90;;;;;;5032572;28;20206;-69
2021/09/13 00:22:12;;;;;;;11.73;10.13;;;14.70;99.90;;;;;;5032551;28;20197;-69
2021/09/13 00:24:37;;;;;;;14.53;10.00;;;14.70;99.90;;;;;;5035223;28;20605;-69
2021/09/13 00:27:03;;;;;;;14.73;10.47;;;14.70;99.90;;;;;;5032266;28;20197;-69
2021/09/13 00:29:29;;;;;;;13.17;10.53;;;14.60;99.90;;;;;;5032232;28;20195;-69
2021/09/13 00:31:54;;;;;;;16.63;9.87;;;14.60;99.90;;;;;;5032344;28;20187;-69
2021/09/13 00:34:20;;;;;;;13.43;10.50;;;14.60;99.90;;;;;;5032735;28;20500;-69
2021/09/13 00:36:45;;;;;;;12.73;9.33;;;14.60;99.90;;;;;;5034836;28;20250;-69
2021/09/13 00:39:11;;;;;;;10.17;8.70;;;14.60;99.90;;;;;;5035652;28;20171;-69
2021/09/13 00:41:36;;;;;;;10.77;9.37;;;14.50;99.90;;;;;;5047289;28;20679;-69
2021/09/13 00:44:02;;;;;;;13.67;10.00;;;14.50;99.90;;;;;;5055687;28;20170;-69
2021/09/13 00:46:28;;;;;;;12.67;10.10;;;14.50;99.90;;;;;;5055735;28;20163;-69
2021/09/13 00:48:53;;;;;;;11.03;9.87;;;14.50;99.90;;;;;;5036957;28;20664;-69
2021/09/13 00:51:19;;;;;;;16.70;10.60;;;14.50;99.90;;;;;;5046305;28;20176;-69
2021/09/13 00:53:45;;;;;;;12.90;10.13;;;14.50;99.90;;;;;;5055667;28;20206;-69
2021/09/13 00:56:11;;;;;;;10.97;8.97;;;14.60;99.90;;;;;;5055596;28;20160;-69
2021/09/13 00:58:37;;;;;;;11.73;10.50;;;14.60;99.90;;;;;;5039699;28;20687;-69
2021/09/13 01:01:04;;;;;;;11.43;9.33;;;14.60;99.90;;;;;;5035078;28;20172;-69
2021/09/13 01:03:31;;;;;;;13.60;11.20;;;14.70;99.90;;;;;;5035299;28;20533;-69
2021/09/13 01:05:56;;;;;;;18.43;10.10;;;14.60;99.90;;;;;;5036256;28;20411;-69
2021/09/13 01:08:23;;;;;;;14.07;10.37;;;14.60;99.90;;;;;;5042393;28;20459;-69
2021/09/13 01:10:51;;;;;;;12.93;10.23;;;14.60;99.90;;;;;;5041500;28;20176;-69
2021/09/13 01:13:17;;;;;;;13.57;10.47;;;14.60;99.90;;;;;;5035125;28;20395;-69
2021/09/13 01:15:43;;;;;;;13.90;12.13;;;14.60;99.90;;;;;;5035209;28;20490;-69
2021/09/13 01:18:09;;;;;;;16.57;12.30;;;14.60;99.90;;;;;;5035117;28;20179;-69
2021/09/13 01:20:35;;;;;;;13.57;10.30;;;14.70;99.90;;;;;;5034961;28;20191;-69
2021/09/13 01:23:07;;;;;;;11.53;9.70;;;14.70;99.90;;;;;;5036858;28;20949;-69
2021/09/13 01:25:35;;;;;;;12.00;9.60;;;14.70;99.90;;;;;;5054014;28;20524;-69
2021/09/13 01:28:00;;;;;;;11.37;10.20;;;14.60;99.90;;;;;;5053617;28;20791;-69
2021/09/13 01:30:26;;;;;;;11.20;10.00;;;14.60;99.90;;;;;;5052076;28;20418;-69
2021/09/13 01:32:52;;;;;;;13.43;9.40;;;14.60;99.90;;;;;;5034583;28;20179;-69
2021/09/13 01:35:17;;;;;;;12.83;10.90;;;14.60;99.90;;;;;;5034802;28;20188;-69
2021/09/13 01:37:43;;;;;;;13.00;11.03;;;14.60;99.90;;;;;;5034606;28;20658;-69
2021/09/13 01:40:08;;;;;;;15.43;10.57;;;14.60;99.90;;;;;;5037501;28;21124;-69
2021/09/13 01:42:34;;;;;;;14.60;10.50;;;14.60;99.90;;;;;;5038741;28;20272;-69
2021/09/13 01:44:59;;;;;;;13.47;9.40;;;14.50;99.90;;;;;;5034836;28;20174;-69
2021/09/13 01:47:26;;;;;;;12.77;10.97;;;14.50;99.90;;;;;;5043988;28;20304;-69
2021/09/13 01:49:51;;;;;;;13.00;9.73;;;14.50;99.90;;;;;;5052790;28;20558;-69
2021/09/13 01:52:17;;;;;;;11.70;10.40;;;14.50;99.90;;;;;;5040458;28;20426;-69
2021/09/13 01:54:42;;;;;;;12.63;10.10;;;14.50;99.90;;;;;;5038452;28;20181;-69
2021/09/13 01:57:08;;;;;;;11.03;9.60;;;14.50;99.90;;;;;;5036966;28;20180;-69
2021/09/13 01:59:33;;;;;;;9.20;8.23;;;14.50;99.90;;;;;;5053476;28;20251;-69
2021/09/13 02:01:59;;;;;;;11.90;9.40;;;14.50;99.90;;;;;;5034880;28;20187;-69
2021/09/13 02:04:24;;;;;;;12.50;9.40;;;14.40;99.90;;;;;;5034333;28;20178;-69
2021/09/13 02:06:50;;;;;;;11.43;9.73;;;14.40;99.90;;;;;;5033951;28;20191;-69
2021/09/13 02:09:16;;;;;;;11.10;8.13;;;14.40;99.90;;;;;;5033941;28;20218;-69
2021/09/13 02:11:42;;;;;;;15.57;9.77;;;14.40;99.90;;;;;;5033816;28;20168;-69
2021/09/13 02:14:08;;;;;;;10.00;9.03;;;14.30;99.90;;;;;;5036607;28;20414;-69
2021/09/13 02:16:33;;;;;;;10.67;8.93;;;14.30;99.90;;;;;;5051407;28;20170;-69
2021/09/13 02:18:59;;;;;;;11.20;9.50;;;14.30;99.90;;;;;;5034037;28;20402;-69
2021/09/13 02:21:24;;;;;;;11.30;10.10;;;14.30;99.90;;;;;;5033435;28;20172;-69
2021/09/13 02:23:50;;;;;;;11.40;9.40;;;14.30;99.90;;;;;;5033731;28;20574;-69
2021/09/13 02:26:16;;;;;;;12.60;10.73;;;14.20;99.90;;;;;;5033764;28;20192;-69
2021/09/13 02:28:41;;;;;;;11.87;9.97;;;14.20;99.90;;;;;;5033600;28;20217;-69
2021/09/13 02:31:07;;;;;;;12.80;9.77;;;14.20;99.90;;;;;;5036048;28;20174;-70
2021/09/13 02:33:32;;;;;;;12.00;9.43;;;14.20;99.90;;;;;;5052789;28;20550;-69
2021/09/13 02:35:58;;;;;;;17.23;10.90;;;14.10;99.90;;;;;;5053761;28;20170;-69
2021/09/13 02:38:23;;;;;;;12.30;10.63;;;14.10;99.90;;;;;;5053454;28;20623;-69
2021/09/13 02:40:49;;;;;;;14.13;11.40;;;14.10;99.90;;;;;;5047319;28;20639;-69
2021/09/13 02:43:15;;;;;;;18.97;13.40;;;14.10;99.90;;;;;;5033672;28;20248;-69
2021/09/13 02:45:40;;;;;;;13.07;10.20;;;14.10;99.90;;;;;;5034518;28;20166;-69
2021/09/13 02:48:06;;;;;;;14.00;10.53;;;14.10;99.90;;;;;;5035869;28;20207;-68
2021/09/13 02:50:31;;;;;;;12.60;11.07;;;14.00;99.90;;;;;;5041113;28;20181;-68
2021/09/13 02:52:58;;;;;;;13.47;11.30;;;14.00;99.90;;;;;;5047690;28;20181;-68
2021/09/13 02:55:24;;;;;;;13.70;10.90;;;14.00;99.90;;;;;;5033608;28;20167;-68
2021/09/13 02:57:50;;;;;;;11.90;10.17;;;14.00;99.90;;;;;;5033172;28;20478;-68
2021/09/13 03:00:16;;;;;;;12.80;10.90;;;14.00;99.90;;;;;;5033084;28;20455;-68
2021/09/13 03:02:43;;;;;;;13.03;11.30;;;13.90;99.90;;;;;;5053016;28;20201;-68
2021/09/13 03:05:10;;;;;;;15.37;11.80;;;13.90;99.90;;;;;;5050046;28;20173;-68
2021/09/13 03:07:35;;;;;;;13.80;11.80;;;13.90;99.90;;;;;;5033701;28;20412;-68
2021/09/13 03:10:01;;;;;;;14.07;11.60;;;13.90;99.90;;;;;;5033067;28;20418;-68
2021/09/13 03:12:29;;;;;;;13.00;11.57;;;13.90;99.90;;;;;;5033066;28;20259;-68
2021/09/13 03:14:54;;;;;;;13.23;10.50;;;13.90;99.90;;;;;;5033534;28;20158;-68
2021/09/13 03:17:20;;;;;;;13.00;10.40;;;13.90;99.90;;;;;;5033135;28;20868;-68
2021/09/13 03:19:45;;;;;;;15.00;11.60;;;13.90;99.90;;;;;;5032792;28;20181;-68
2021/09/13 03:22:11;;;;;;;12.63;10.10;;;13.80;99.90;;;;;;5033017;28;20182;-68
2021/09/13 03:24:36;;;;;;;13.60;10.27;;;13.80;99.90;;;;;;5035414;28;20256;-68
2021/09/13 03:27:03;;;;;;;12.00;10.73;;;13.80;99.90;;;;;;5049001;28;20643;-68
2021/09/13 03:29:28;;;;;;;12.90;11.10;;;13.80;99.90;;;;;;5033335;28;20231;-68
2021/09/13 03:31:54;;;;;;;16.33;11.60;;;13.80;99.90;;;;;;5034725;28;20784;-68
2021/09/13 03:34:19;;;;;;;12.27;10.40;;;13.80;99.90;;;;;;5032815;28;20205;-68
2021/09/13 03:36:45;;;;;;;13.63;10.27;;;13.80;99.90;;;;;;5033008;28;20169;-68
2021/09/13 03:39:10;;;;;;;15.60;11.77;;;13.70;99.90;;;;;;5035748;28;20175;-68
2021/09/13 03:41:36;;;;;;;13.50;11.00;;;13.70;99.90;;;;;;5039608;28;20188;-68
2021/09/13 03:44:02;;;;;;;13.40;9.33;;;13.70;99.90;;;;;;5032937;28;20154;-68
2021/09/13 03:46:28;;;;;;;11.77;10.50;;;13.70;99.90;;;;;;5032691;28;20157;-69
2021/09/13 03:48:53;;;;;;;16.03;11.63;;;13.60;99.90;;;;;;5032411;28;20529;-68
2021/09/13 03:51:19;;;;;;;13.40;12.00;;;13.60;99.90;;;;;;5032084;28;20258;-68
2021/09/13 03:53:44;;;;;;;14.53;11.93;;;13.60;99.90;;;;;;5034215;28;20595;-68
2021/09/13 03:56:10;;;;;;;15.43;11.23;;;13.60;99.90;;;;;;5038175;28;20174;-68
2021/09/13 03:58:35;;;;;;;14.73;11.57;;;13.60;99.90;;;;;;5033180;28;20662;-68
2021/09/13 04:01:01;;;;;;;12.77;10.87;;;13.60;99.90;;;;;;5032265;28;20244;-68
2021/09/13 04:03:34;;;;;;;12.80;10.73;;;13.60;99.90;;;;;;5032508;28;20158;-68
2021/09/13 04:06:00;;;;;;;16.83;11.47;;;13.60;99.90;;;;;;5037514;28;20237;-68
2021/09/13 04:13:48;;;;;;;14.57;10.50;;;13.60;99.90;;;;;;5048850;28;20450;-68
2021/09/13 04:16:14;;;;;;;12.13;10.77;;;13.50;99.90;;;;;;5042549;28;20454;-69
2021/09/13 04:18:40;;;;;;;14.50;12.50;;;13.60;99.90;;;;;;5038685;28;20677;-68
2021/09/13 04:21:05;;;;;;;14.80;12.23;;;13.60;99.90;;;;;;5040066;28;20168;-69
2021/09/13 04:23:31;;;;;;;16.43;12.53;;;13.50;99.90;;;;;;5051637;28;20386;-68
2021/09/13 04:25:57;;;;;;;12.73;11.13;;;13.60;99.90;;;;;;5044636;28;20259;-69
2021/09/13 04:28:22;;;;;;;15.23;12.60;;;13.60;99.90;;;;;;5042992;28;20169;-68
2021/09/13 04:30:48;;;;;;;15.80;11.63;;;13.50;99.90;;;;;;5036222;28;20196;-69
2021/09/13 04:33:13;;;;;;;13.57;12.17;;;13.50;99.90;;;;;;5037041;28;20269;-68
2021/09/13 04:35:39;;;;;;;15.13;12.50;;;13.50;99.90;;;;;;5037375;28;20635;-68
2021/09/13 04:38:04;;;;;;;19.80;11.90;;;13.50;99.90;;;;;;5041421;28;20257;-68
2021/09/13 04:40:30;;;;;;;14.73;12.00;;;13.50;99.90;;;;;;5046213;28;20709;-68
2021/09/13 04:42:55;;;;;;;15.50;11.93;;;13.50;99.90;;;;;;5038308;28;20315;-68
2021/09/13 04:45:21;;;;;;;13.40;11.00;;;13.50;99.90;;;;;;5047899;28;20646;-68
2021/09/13 04:47:46;;;;;;;13.33;11.57;;;13.50;99.90;;;;;;5044460;28;20677;-68
2021/09/13 04:50:12;;;;;;;19.50;11.10;;;13.50;99.90;;;;;;5030965;28;20205;-69
2021/09/13 04:52:38;;;;;;;14.63;11.77;;;13.50;99.90;;;;;;5043270;28;20191;-68
2021/09/13 04:55:03;;;;;;;15.60;13.13;;;13.50;99.90;;;;;;5046213;28;20642;-68
2021/09/13 04:57:29;;;;;;;14.57;11.90;;;13.50;99.90;;;;;;5045228;28;20183;-68
2021/09/13 04:59:54;;;;;;;13.80;12.10;;;13.50;99.90;;;;;;5039664;28;20209;-68
2021/09/13 05:02:20;;;;;;;15.37;12.60;;;13.50;99.90;;;;;;5033780;28;20176;-68
2021/09/13 05:04:45;;;;;;;14.00;11.77;;;13.50;99.90;;;;;;5034956;28;20212;-68
2021/09/13 05:07:11;;;;;;;16.57;11.83;;;13.50;99.90;;;;;;5040147;28;20667;-68
2021/09/13 05:09:37;;;;;;;13.97;11.57;;;13.50;99.90;;;;;;5036685;28;20292;-68
2021/09/13 05:12:02;;;;;;;16.30;12.93;;;13.40;99.90;;;;;;5031045;28;20173;-68
2021/09/13 05:14:28;;;;;;;14.00;11.07;;;13.50;99.90;;;;;;5043014;28;20172;-68
2021/09/13 05:16:54;;;;;;;15.50;11.00;;;13.40;99.90;;;;;;5044878;28;20407;-68
2021/09/13 05:19:19;;;;;;;14.43;11.63;;;13.40;99.90;;;;;;5042872;28;20185;-68
2021/09/13 05:21:45;;;;;;;15.20;11.37;;;13.40;99.90;;;;;;5023736;28;20238;-68
2021/09/13 05:24:10;;;;;;;17.70;12.03;;;13.40;99.90;;;;;;5023677;28;20591;-68
2021/09/13 05:26:36;;;;;;;16.40;11.63;;;13.40;99.90;;;;;;5027237;28;20192;-68
2021/09/13 05:29:02;;;;;;;23.00;16.60;;;13.40;99.90;;;;;;5025626;28;20247;-68
2021/09/13 05:31:27;;;;;;;20.30;15.47;;;13.40;99.90;;;;;;5019946;28;20188;-68
2021/09/13 05:33:55;;;;;;;23.23;17.17;;;13.40;99.90;;;;;;5023019;28;20662;-68
2021/09/13 05:36:21;;;;;;;18.43;15.20;;;13.50;99.90;;;;;;5026214;28;20179;-68
2021/09/13 05:38:46;;;;;;;20.77;16.00;;;13.50;99.90;;;;;;5026349;28;20933;-68
2021/09/13 05:41:12;;;;;;;17.13;13.70;;;13.50;99.90;;;;;;5022894;28;20252;-68
2021/09/13 05:43:38;;;;;;;18.20;13.03;;;13.50;99.90;;;;;;5028273;28;20634;-68
2021/09/13 05:46:03;;;;;;;18.07;14.17;;;13.50;99.90;;;;;;5031244;28;20176;-68
2021/09/13 05:48:29;;;;;;;19.13;13.90;;;13.50;99.90;;;;;;5028978;28;20260;-68
2021/09/13 05:50:54;;;;;;;21.67;13.40;;;13.50;99.90;;;;;;5022520;28;20667;-68
2021/09/13 05:53:20;;;;;;;21.33;13.63;;;13.50;99.90;;;;;;5023997;28;20184;-69
2021/09/13 05:55:46;;;;;;;17.23;13.00;;;13.50;99.90;;;;;;5019907;28;20206;-69
2021/09/13 05:58:12;;;;;;;20.60;13.80;;;13.50;99.90;;;;;;5023215;28;20181;-69
2021/09/13 06:00:38;;;;;;;17.40;12.90;;;13.50;99.90;;;;;;5024361;28;20208;-68
2021/09/13 06:03:05;;;;;;;18.07;13.27;;;13.50;99.90;;;;;;5028869;28;20435;-68
2021/09/13 06:05:32;;;;;;;20.83;13.43;;;13.60;99.90;;;;;;5023371;28;20418;-68
2021/09/13 06:07:57;;;;;;;17.33;13.47;;;13.60;99.90;;;;;;5019398;28;20484;-68
2021/09/13 06:10:23;;;;;;;17.37;12.27;;;13.70;99.90;;;;;;5024738;28;20503;-68
2021/09/13 06:12:49;;;;;;;15.50;12.80;;;13.70;99.90;;;;;;5022772;28;20180;-68
2021/09/13 06:15:14;;;;;;;16.83;13.43;;;13.70;99.90;;;;;;5021373;28;20432;-68
2021/09/13 06:17:40;;;;;;;21.70;15.00;;;13.80;99.90;;;;;;5022174;28;20696;-69
2021/09/13 06:20:06;;;;;;;28.43;14.47;;;13.90;99.90;;;;;;5017710;28;20316;-68
2021/09/13 06:22:31;;;;;;;21.03;14.60;;;13.90;99.90;;;;;;5024639;28;20182;-68
2021/09/13 06:24:57;;;;;;;20.77;14.10;;;14.00;99.90;;;;;;5023520;28;20421;-68
2021/09/13 06:27:23;;;;;;;22.03;14.90;;;14.00;99.90;;;;;;5023664;28;20262;-68
2021/09/13 06:29:49;;;;;;;24.60;14.40;;;14.10;99.90;;;;;;5026965;28;20197;-68
2021/09/13 06:32:14;;;;;;;19.37;14.73;;;14.10;99.90;;;;;;5020861;28;20248;-68
2021/09/13 06:34:40;;;;;;;20.20;15.40;;;14.20;99.90;;;;;;5017862;28;20265;-68
2021/09/13 06:37:06;;;;;;;19.83;14.07;;;14.20;99.90;;;;;;5023651;28;20272;-68
2021/09/13 06:39:31;;;;;;;18.07;14.27;;;14.30;99.90;;;;;;5022381;28;20186;-68
2021/09/13 06:41:57;;;;;;;23.20;12.80;;;14.30;99.90;;;;;;5025040;28;20194;-68
2021/09/13 06:44:24;;;;;;;20.13;14.10;;;14.40;99.90;;;;;;5022532;28;20186;-68
2021/09/13 06:47:01;;;;;;;22.83;17.10;;;14.50;99.90;;;;;;5022603;28;20218;-68
2021/09/13 06:49:27;;;;;;;24.87;17.40;;;14.60;99.90;;;;;;5024505;28;20460;-68
2021/09/13 06:51:52;;;;;;;27.50;19.37;;;14.70;99.90;;;;;;5021880;28;20966;-68
2021/09/13 06:54:18;;;;;;;26.37;19.97;;;14.70;99.90;;;;;;5021151;28;20652;-69
2021/09/13 06:56:45;;;;;;;27.50;18.30;;;14.70;99.90;;;;;;5019278;28;20278;-68
2021/09/13 06:59:12;;;;;;;25.23;17.00;;;14.80;99.90;;;;;;5022426;28;20290;-68
2021/09/13 07:01:38;;;;;;;26.17;17.37;;;14.80;99.90;;;;;;5020988;28;20970;-68
2021/09/13 07:04:04;;;;;;;25.13;17.03;;;14.90;99.90;;;;;;5021010;28;20472;-68
2021/09/13 07:06:29;;;;;;;24.10;16.87;;;14.90;99.90;;;;;;5023765;28;20202;-68
2021/09/13 07:08:56;;;;;;;25.40;17.77;;;15.00;99.90;;;;;;5022377;28;20207;-69
2021/09/13 07:11:22;;;;;;;25.60;16.83;;;15.10;99.90;;;;;;5020510;28;20642;-68
2021/09/13 07:13:47;;;;;;;23.00;16.30;;;15.20;99.90;;;;;;5019779;28;20435;-69
2021/09/13 07:16:13;;;;;;;26.57;18.20;;;15.30;99.90;;;;;;5019698;28;20653;-69
2021/09/13 07:18:38;;;;;;;25.80;18.47;;;15.40;99.90;;;;;;5024018;28;20222;-69
2021/09/13 07:21:04;;;;;;;24.20;17.53;;;15.40;99.90;;;;;;5021701;28;20213;-69
2021/09/13 07:23:30;;;;;;;30.30;18.30;;;15.40;99.90;;;;;;5020673;28;20182;-69
2021/09/13 07:25:55;;;;;;;30.00;18.80;;;15.40;99.90;;;;;;5015880;28;20196;-69
2021/09/13 07:28:21;;;;;;;30.17;18.23;;;15.40;99.90;;;;;;5022504;28;20816;-69
2021/09/13 07:30:47;;;;;;;29.00;18.87;;;15.40;99.90;;;;;;5020869;28;20496;-69
2021/09/13 07:33:13;;;;;;;29.80;18.70;;;15.40;99.90;;;;;;5016964;28;20189;-69
2021/09/13 07:35:39;;;;;;;28.90;18.77;;;15.50;99.90;;;;;;5021906;28;20443;-69
2021/09/13 07:38:04;;;;;;;31.30;19.77;;;15.60;99.90;;;;;;5026664;28;20416;-69
2021/09/13 07:40:30;;;;;;;29.73;18.23;;;15.60;99.90;;;;;;5026086;28;20603;-69
2021/09/13 07:42:56;;;;;;;33.87;19.60;;;15.60;99.90;;;;;;5022159;28;21701;-69
2021/09/13 07:45:22;;;;;;;34.57;21.03;;;15.70;99.90;;;;;;5021316;28;20464;-69
2021/09/13 07:47:48;;;;;;;30.90;20.40;;;15.90;99.90;;;;;;5026097;28;20873;-69
2021/09/13 07:50:14;;;;;;;36.90;21.87;;;16.00;99.90;;;;;;5022794;28;20258;-69
2021/09/13 07:52:39;;;;;;;34.67;20.60;;;16.10;99.90;;;;;;5018209;28;20431;-69
2021/09/13 07:55:06;;;;;;;34.87;20.90;;;16.20;99.90;;;;;;5024108;28;20195;-69
2021/09/13 07:57:32;;;;;;;37.23;19.93;;;16.30;99.90;;;;;;5022913;28;20212;-69
2021/09/13 07:59:57;;;;;;;35.63;20.60;;;16.40;99.90;;;;;;5026224;28;20574;-69
2021/09/13 08:02:25;;;;;;;37.03;19.47;;;16.40;99.90;;;;;;5021056;28;20180;-69
2021/09/13 08:04:50;;;;;;;31.93;19.17;;;16.40;99.90;;;;;;5024768;28;20280;-69
2021/09/13 08:07:16;;;;;;;36.00;19.60;;;16.40;99.90;;;;;;5026549;28;20558;-69
2021/09/13 08:09:41;;;;;;;27.00;18.67;;;16.40;99.90;;;;;;5020009;28;20215;-69
2021/09/13 08:12:07;;;;;;;27.67;19.70;;;16.50;99.90;;;;;;5024175;28;20173;-69
2021/09/13 08:14:33;;;;;;;29.40;19.30;;;16.60;99.90;;;;;;5018596;28;20207;-69
2021/09/13 08:16:58;;;;;;;27.40;17.80;;;16.80;99.90;;;;;;5020653;28;20190;-69
2021/09/13 08:19:24;;;;;;;30.00;18.90;;;16.90;99.90;;;;;;5022740;28;20204;-69
2021/09/13 08:21:49;;;;;;;33.40;18.70;;;17.10;99.90;;;;;;5021132;28;20184;-69
2021/09/13 08:24:15;;;;;;;31.93;19.87;;;17.10;99.90;;;;;;5017937;28;20240;-69
2021/09/13 08:26:40;;;;;;;27.07;18.13;;;17.20;99.90;;;;;;5019738;28;20550;-69
2021/09/13 08:29:06;;;;;;;29.23;17.67;;;17.10;99.90;;;;;;5020917;28;20299;-69
2021/09/13 08:31:33;;;;;;;31.70;18.20;;;17.00;99.90;;;;;;5021603;28;20174;-69
2021/09/13 08:33:58;;;;;;;30.10;18.73;;;17.00;99.90;;;;;;5023007;28;20185;-69
2021/09/13 08:36:24;;;;;;;26.07;17.93;;;17.10;99.90;;;;;;5021423;28;20797;-69
2021/09/13 08:38:49;;;;;;;25.20;17.43;;;17.10;99.90;;;;;;5020611;28;20704;-69
2021/09/13 08:41:15;;;;;;;27.27;17.47;;;17.20;99.90;;;;;;5024181;28;20188;-69
2021/09/13 08:43:41;;;;;;;26.77;16.60;;;17.20;99.90;;;;;;5020391;28;20177;-69
2021/09/13 08:46:16;;;;;;;26.73;16.80;;;17.20;99.90;;;;;;5018819;28;20178;-69
2021/09/13 08:48:44;;;;;;;25.47;17.23;;;17.20;99.90;;;;;;5028075;28;20164;-69
2021/09/13 08:51:18;;;;;;;30.93;18.70;;;17.20;99.90;;;;;;5039061;28;20423;-69
2021/09/13 08:53:52;;;;;;;29.00;17.10;;;17.20;99.90;;;;;;5019560;28;20432;-69
2021/09/13 08:56:18;;;;;;;26.40;17.00;;;17.20;99.90;;;;;;5022826;28;20431;-69
2021/09/13 08:58:45;;;;;;;30.07;18.23;;;17.30;99.90;;;;;;5027178;28;20496;-69
2021/09/13 09:01:12;;;;;;;24.70;16.57;;;17.30;99.90;;;;;;5022596;28;20450;-69
2021/09/13 09:03:39;;;;;;;26.53;16.07;;;17.30;99.90;;;;;;5032609;28;20415;-69
2021/09/13 09:06:05;;;;;;;23.20;16.00;;;17.30;99.90;;;;;;5033806;28;21131;-69
2021/09/13 09:08:33;;;;;;;26.40;16.93;;;17.30;99.90;;;;;;5027336;28;20525;-69
2021/09/13 09:11:02;;;;;;;22.67;14.53;;;17.40;99.90;;;;;;5022138;28;20985;-69
2021/09/13 09:13:39;;;;;;;29.70;17.20;;;17.40;99.90;;;;;;5026851;28;20940;-69
2021/09/13 09:16:04;;;;;;;24.57;15.70;;;17.40;99.90;;;;;;5026423;28;20439;-69
2021/09/13 09:18:40;;;;;;;25.70;17.20;;;17.50;99.90;;;;;;5024753;28;20532;-69
2021/09/13 09:21:07;;;;;;;25.50;16.40;;;17.60;99.90;;;;;;5025556;28;20744;-69
2021/09/13 09:26:31;;;;;;;21.90;14.30;;;17.80;99.90;;;;;;5181418;27;21074;-69
2021/09/13 09:29:00;;;;;;;24.40;13.97;;;17.90;99.90;;;;;;5164069;27;20940;-69
2021/09/13 09:31:44;;;;;;;20.20;13.60;;;18.10;99.90;;;;;;5167767;27;20440;-69
2021/09/13 09:34:13;;;;;;;22.93;15.17;;;18.50;99.90;;;;;;5160417;27;20425;-69
2021/09/13 09:36:38;;;;;;;21.13;14.00;;;19.00;99.90;;;;;;5168385;27;20439;-69
2021/09/13 09:39:12;;;;;;;15.60;11.03;;;19.50;99.90;;;;;;5168826;27;20515;-69
2021/09/13 09:41:43;;;;;;;16.20;10.70;;;20.00;99.90;;;;;;5170183;27;20179;-69
2021/09/13 09:44:09;;;;;;;16.20;10.40;;;20.40;99.90;;;;;;5168964;27;20428;-69
2021/09/13 09:46:40;;;;;;;14.30;10.00;;;20.50;99.90;;;;;;5169493;27;20553;-70
2021/09/13 09:51:49;;;;;;;16.13;10.17;;;20.30;99.90;;;;;;5056165;28;20908;-69
2021/09/13 09:54:18;;;;;;;12.57;9.10;;;20.30;99.90;;;;;;5042032;28;20963;-69
2021/09/13 09:56:46;;;;;;;9.57;7.47;;;20.20;99.90;;;;;;5043397;28;20442;-69
2021/09/13 09:59:13;;;;;;;15.03;8.43;;;20.20;99.90;;;;;;5042119;28;20538;-69
2021/09/13 10:06:56;;;;;;;11.00;7.10;;;20.10;99.90;;;;;;5068864;28;20630;-69
2021/09/13 10:09:22;;;;;;;9.17;6.00;;;20.00;99.90;;;;;;5053168;28;20489;-69
2021/09/13 10:11:52;;;;;;;8.67;6.00;;;20.00;99.90;;;;;;5036867;28;20812;-69
2021/09/13 10:14:22;;;;;;;9.10;6.00;;;20.00;99.90;;;;;;5048464;28;20469;-69
2021/09/13 10:16:48;;;;;;;9.93;6.97;;;20.00;99.90;;;;;;5049939;28;20869;-69
2021/09/13 10:19:15;;;;;;;6.70;5.57;;;20.00;99.90;;;;;;5047012;28;20423;-69
2021/09/13 10:21:41;;;;;;;8.37;6.30;;;19.90;99.90;;;;;;5037014;28;20480;-69
2021/09/13 10:24:13;;;;;;;7.10;4.50;;;20.00;99.90;;;;;;5043691;28;20438;-69
2021/09/13 10:26:44;;;;;;;6.57;4.80;;;19.90;99.90;;;;;;5045203;28;20479;-69
2021/09/13 10:37:06;;;;;;;8.77;5.33;;;19.90;99.90;;;;;;5083354;28;21064;-70
2021/09/13 10:39:55;;;;;;;5.43;4.17;;;19.90;99.90;;;;;;5064301;28;20432;-70
2021/09/13 10:42:49;;;;;;;6.50;4.90;;;19.90;99.90;;;;;;5062783;28;21124;-69
2021/09/13 10:48:21;;;;;;;10.10;7.30;;;20.00;99.90;;;;;;5048441;28;20537;-69
2021/09/13 10:56:06;;;;;;;10.00;6.00;;;19.90;99.90;;;;;;5064155;27;20547;-69
2021/09/13 10:58:51;;;;;;;9.97;7.17;;;19.90;99.90;;;;;;5044072;28;20998;-69
2021/09/13 11:09:14;;;;;;;7.30;6.07;;;19.90;99.90;;;;;;5060274;28;20651;-70
2021/09/13 11:11:45;;;;;;;9.90;6.77;;;20.00;99.90;;;;;;5046183;28;20808;-70
2021/09/13 11:19:29;;;;;;;8.47;7.30;;;20.10;99.90;;;;;;5054640;28;20544;-69
2021/09/13 11:21:57;;;;;;;10.10;6.90;;;20.10;99.90;;;;;;5063486;28;20514;-70
2021/09/13 11:24:26;;;;;;;9.70;6.30;;;20.20;99.90;;;;;;5057283;28;20525;-70
2021/09/13 11:32:17;;;;;;;12.53;8.13;;;20.30;99.90;;;;;;5049864;28;20553;-70
2021/09/13 11:34:45;;;;;;;11.90;6.97;;;20.30;99.90;;;;;;5048637;28;20795;-69
2021/09/13 11:39:52;;;;;;;7.30;6.10;;;20.30;99.90;;;;;;5043917;28;20666;-69
2021/09/13 11:42:23;;;;;;;8.87;5.93;;;20.30;99.90;;;;;;5043836;28;20513;-69
2021/09/13 11:47:30;;;;;;;9.60;6.53;;;20.40;99.90;;;;;;5054782;28;20974;-69
2021/09/13 11:49:58;;;;;;;5.57;4.40;;;20.40;99.90;;;;;;5043449;28;20434;-68
2021/09/13 11:52:29;;;;;;;7.50;5.77;;;20.40;99.90;;;;;;5043364;28;20453;-69
2021/09/13 11:55:16;;;;;;;10.33;6.93;;;20.30;99.90;;;;;;5042065;28;20497;-69
2021/09/13 11:57:44;;;;;;;7.90;5.43;;;20.40;99.90;;;;;;5043959;28;20516;-69
2021/09/13 12:00:14;;;;;;;10.73;5.63;;;20.40;99.90;;;;;;5044492;28;20458;-68
2021/09/13 12:02:45;;;;;;;7.27;4.90;;;20.40;99.90;;;;;;5044411;28;20500;-68
2021/09/13 12:05:13;;;;;;;8.30;5.27;;;20.40;99.90;;;;;;5043144;28;20430;-69
2021/09/13 12:07:40;;;;;;;7.40;6.27;;;20.40;99.90;;;;;;5045522;28;20435;-68
2021/09/13 12:10:07;;;;;;;8.33;6.40;;;20.30;99.90;;;;;;5042702;28;20836;-69
2021/09/13 12:12:35;;;;;;;9.13;5.30;;;20.30;99.90;;;;;;5046585;28;20415;-69
2021/09/13 12:15:05;;;;;;;5.77;4.80;;;20.40;99.90;;;;;;5045983;28;20430;-68
2021/09/13 12:17:38;;;;;;;8.17;5.70;;;20.40;99.90;;;;;;5041676;28;20434;-69
2021/09/13 12:23:00;;;;;;;5.13;4.47;;;20.40;99.90;;;;;;5063000;28;20544;-69
2021/09/13 12:25:27;;;;;;;7.40;5.67;;;20.50;99.90;;;;;;5045962;28;20490;-69
2021/09/13 12:27:54;;;;;;;7.63;5.70;;;20.60;99.90;;;;;;5044262;28;20425;-69
2021/09/13 12:30:23;;;;;;;8.00;5.70;;;20.70;99.90;;;;;;5044318;28;20565;-69
2021/09/13 12:32:53;;;;;;;9.53;7.57;;;20.80;99.90;;;;;;5045800;28;20431;-69
2021/09/13 12:35:30;;;;;;;10.57;6.80;;;20.90;99.90;;;;;;5047162;28;20423;-69
2021/09/13 12:37:57;;;;;;;9.83;6.33;;;20.90;99.90;;;;;;5045665;28;20444;-69
2021/09/13 12:40:22;;;;;;;11.93;6.40;;;21.00;99.90;;;;;;5044254;28;20509;-70
2021/09/13 12:45:31;;;;;;;9.00;5.50;;;21.00;99.90;;;;;;5062964;28;21465;-69
2021/09/13 12:48:00;;;;;;;8.17;6.47;;;21.10;99.90;;;;;;5040500;28;21505;-69
2021/09/13 12:53:07;;;;;;;9.30;6.17;;;21.10;99.90;;;;;;5043751;28;20886;-69
2021/09/13 12:55:38;;;;;;;8.43;5.60;;;21.20;99.90;;;;;;5042797;28;20434;-69
2021/09/13 12:58:23;;;;;;;6.10;5.50;;;21.10;99.90;;;;;;5039924;28;20455;-69
2021/09/13 13:00:50;;;;;;;7.47;5.90;;;21.20;99.90;;;;;;5035053;28;20843;-69
2021/09/13 13:03:16;;;;;;;6.33;5.73;;;21.10;99.90;;;;;;5029667;28;20489;-69
2021/09/13 13:05:48;;;;;;;7.77;4.90;;;21.00;99.90;;;;;;5030686;28;20431;-68
2021/09/13 13:08:15;;;;;;;6.50;5.73;;;20.90;99.90;;;;;;5029173;28;20184;-69
2021/09/13 13:10:40;;;;;;;13.03;6.77;;;20.90;99.90;;;;;;5026927;28;20446;-69
2021/09/13 13:13:06;;;;;;;8.37;5.73;;;20.90;99.90;;;;;;5034045;28;20424;-69
2021/09/13 13:15:32;;;;;;;6.80;5.67;;;20.80;99.90;;;;;;5031696;28;20168;-69
2021/09/13 13:17:59;;;;;;;6.40;5.57;;;20.70;99.90;;;;;;5028108;28;20287;-69
2021/09/13 13:20:27;;;;;;;5.90;4.93;;;20.70;99.90;;;;;;5032492;28;20834;-69
2021/09/13 13:22:54;;;;;;;6.47;5.30;;;20.70;99.90;;;;;;5028836;28;20517;-69
2021/09/13 13:25:21;;;;;;;7.10;5.23;;;20.60;99.90;;;;;;5027984;28;20474;-69
2021/09/13 13:27:47;;;;;;;7.17;5.53;;;20.70;99.90;;;;;;5034158;28;20427;-69
2021/09/13 13:30:12;;;;;;;7.63;5.63;;;20.70;99.90;;;;;;5027989;28;20423;-69
2021/09/13 13:32:38;;;;;;;8.87;7.00;;;20.70;99.90;;;;;;5034650;28;20288;-69